createdAt,value
2018-12-26T00:00:44.241Z,29.37
2018-12-26T00:03:13.111Z,28.50
2018-12-26T00:05:38.978Z,24.92
2018-12-26T00:08:05.845Z,28.30
2018-12-26T00:10:31.890Z,26.20
2018-12-26T00:12:57.995Z,27.73
2018-12-26T00:15:23.969Z,27.75
2018-12-26T00:17:50.110Z,27.15
2018-12-26T00:20:19.391Z,28.77
2018-12-26T00:22:45.490Z,32.83
2018-12-26T00:25:14.209Z,27.98
2018-12-26T00:27:40.159Z,23.50
2018-12-26T00:30:10.041Z,21.63
2018-12-26T00:32:35.866Z,29.32
2018-12-26T00:35:02.927Z,31.03
2018-12-26T00:37:29.031Z,28.20
2018-12-26T00:39:57.526Z,27.60
2018-12-26T00:42:23.648Z,27.95
2018-12-26T00:44:49.906Z,25.92
2018-12-26T00:47:15.789Z,26.87
2018-12-26T00:49:45.236Z,24.97
2018-12-26T00:52:11.088Z,26.93
2018-12-26T00:54:36.957Z,27.53
2018-12-26T00:57:04.045Z,32.27
2018-12-26T00:59:29.856Z,29.65
2018-12-26T01:02:00.252Z,28.30
2018-12-26T01:04:26.363Z,29.05
2018-12-26T01:06:55.483Z,33.35
2018-12-26T01:09:21.354Z,28.60
2018-12-26T01:11:48.602Z,30.10
2018-12-26T01:14:14.472Z,31.68
2018-12-26T01:16:45.657Z,34.13
2018-12-26T01:19:11.502Z,35.50
2018-12-26T01:21:37.742Z,28.80
2018-12-26T01:24:03.837Z,32.50
2018-12-26T01:26:29.677Z,35.13
2018-12-26T01:28:55.495Z,35.43
2018-12-26T01:31:21.634Z,35.50
2018-12-26T01:33:50.801Z,30.97
2018-12-26T01:36:16.929Z,31.93
2018-12-26T01:38:45.579Z,30.55
2018-12-26T01:41:11.443Z,29.40
2018-12-26T01:43:40.383Z,28.50
2018-12-26T01:46:06.496Z,36.58
2018-12-26T01:48:34.209Z,30.88
2018-12-26T01:51:00.297Z,32.83
2018-12-26T01:53:29.068Z,36.53
2018-12-26T01:55:55.148Z,37.88
2018-12-26T01:58:21.196Z,35.75
2018-12-26T02:00:47.085Z,27.75
2018-12-26T02:03:12.941Z,29.73
2018-12-26T02:05:41.800Z,38.27
2018-12-26T02:08:07.653Z,41.42
2018-12-26T02:10:34.788Z,29.97
2018-12-26T02:13:00.629Z,27.20
2018-12-26T02:15:30.930Z,33.83
2018-12-26T02:17:57.058Z,35.60
2018-12-26T02:20:24.974Z,28.40
2018-12-26T02:22:51.046Z,29.18
2018-12-26T02:25:19.684Z,31.42
2018-12-26T02:27:45.520Z,30.55
2018-12-26T02:30:14.455Z,30.20
2018-12-26T02:32:40.300Z,27.58
2018-12-26T02:35:06.210Z,33.40
2018-12-26T02:37:32.189Z,34.57
2018-12-26T02:39:58.025Z,36.50
2018-12-26T02:42:27.146Z,31.13
2018-12-26T02:44:54.779Z,42.62
2018-12-26T02:47:21.307Z,30.82
2018-12-26T02:49:47.400Z,31.87
2018-12-26T02:52:16.288Z,34.13
2018-12-26T02:54:42.158Z,33.30
2018-12-26T02:57:10.810Z,33.50
2018-12-26T02:59:36.698Z,23.77
2018-12-26T03:02:05.305Z,35.37
2018-12-26T03:04:31.121Z,29.80
2018-12-26T03:06:59.764Z,37.20
2018-12-26T03:09:25.840Z,30.23
2018-12-26T03:11:51.820Z,39.58
2018-12-26T03:14:17.671Z,26.35
2018-12-26T03:16:46.736Z,31.70
2018-12-26T03:19:12.574Z,31.82
2018-12-26T03:21:38.674Z,29.90
2018-12-26T03:24:08.001Z,28.60
2018-12-26T03:26:33.847Z,29.90
2018-12-26T03:29:02.975Z,39.90
2018-12-26T03:31:30.153Z,33.58
2018-12-26T03:33:56.272Z,34.80
2018-12-26T03:36:22.235Z,32.00
2018-12-26T03:38:49.411Z,30.48
2018-12-26T03:41:15.255Z,28.62
2018-12-26T03:43:44.336Z,27.47
2018-12-26T03:46:10.476Z,34.73
2018-12-26T03:48:36.306Z,31.23
2018-12-26T03:51:02.163Z,38.73
2018-12-26T03:53:28.196Z,29.20
2018-12-26T03:55:57.149Z,26.68
2018-12-26T03:58:22.989Z,30.85
2018-12-26T04:00:51.893Z,30.43
2018-12-26T04:03:17.725Z,28.65
2018-12-26T04:05:46.557Z,30.70
2018-12-26T04:08:12.698Z,30.97
2018-12-26T04:10:41.686Z,26.55
2018-12-26T04:13:07.530Z,28.35
2018-12-26T04:15:36.725Z,52.30
2018-12-26T04:18:02.575Z,36.63
2018-12-26T04:20:31.269Z,28.17
2018-12-26T04:22:57.469Z,54.93
2018-12-26T04:25:23.320Z,27.42
2018-12-26T04:27:49.484Z,31.20
2018-12-26T04:30:15.303Z,33.35
2018-12-26T04:32:44.094Z,40.63
2018-12-26T04:35:09.867Z,28.15
2018-12-26T04:37:38.795Z,105.57
2018-12-26T04:40:04.830Z,53.58
2018-12-26T04:42:30.721Z,28.52
2018-12-26T04:44:56.571Z,44.80
2018-12-26T04:47:27.353Z,68.83
2018-12-26T04:49:53.177Z,50.65
2018-12-26T04:52:21.924Z,48.30
2018-12-26T04:54:47.700Z,30.62
2018-12-26T04:57:15.010Z,58.43
2018-12-26T04:59:41.175Z,45.80
2018-12-26T05:02:06.972Z,30.72
2018-12-26T05:04:33.034Z,67.63
2018-12-26T05:06:58.837Z,40.28
2018-12-26T05:09:27.446Z,37.80
2018-12-26T05:11:53.261Z,28.92
2018-12-26T05:14:22.167Z,26.57
2018-12-26T05:16:48.156Z,44.38
2018-12-26T05:19:17.174Z,43.57
2018-12-26T05:21:42.993Z,48.08
2018-12-26T05:24:11.897Z,37.53
2018-12-26T05:26:37.766Z,28.35
2018-12-26T05:29:06.759Z,27.37
2018-12-26T05:31:32.648Z,40.03
2018-12-26T05:34:01.474Z,34.73
2018-12-26T05:36:27.296Z,34.45
2018-12-26T05:38:53.471Z,49.87
2018-12-26T05:41:19.350Z,46.92
2018-12-26T05:43:45.157Z,61.30
2018-12-26T05:46:14.609Z,42.87
2018-12-26T05:48:40.758Z,28.55
2018-12-26T05:51:06.561Z,32.38
2018-12-26T05:53:32.713Z,31.40
2018-12-26T05:56:01.904Z,32.80
2018-12-26T05:58:28.040Z,27.58
2018-12-26T06:00:57.243Z,37.30
2018-12-26T06:03:23.345Z,28.52
2018-12-26T06:05:52.247Z,32.38
2018-12-26T06:08:18.332Z,91.50
2018-12-26T06:10:45.506Z,61.63
2018-12-26T06:13:11.332Z,33.80
2018-12-26T06:15:37.176Z,29.73
2018-12-26T06:18:03.048Z,34.50
2018-12-26T06:20:28.888Z,32.67
2018-12-26T06:22:59.539Z,25.70
2018-12-26T06:25:25.394Z,49.85
2018-12-26T06:27:54.323Z,47.33
2018-12-26T06:30:20.268Z,41.25
2018-12-26T06:32:49.173Z,36.73
2018-12-26T06:35:15.009Z,53.13
2018-12-26T06:37:43.888Z,29.63
2018-12-26T06:40:10.048Z,34.45
2018-12-26T06:42:36.006Z,19.05
2018-12-26T06:45:02.247Z,28.83
2018-12-26T06:47:32.875Z,32.08
2018-12-26T06:49:58.976Z,40.98
2018-12-26T06:52:24.836Z,39.53
2018-12-26T06:54:50.684Z,39.20
2018-12-26T06:57:16.539Z,20.80
2018-12-26T06:59:42.497Z,21.43
2018-12-26T07:02:09.381Z,23.83
2018-12-26T07:04:38.219Z,26.87
2018-12-26T07:07:04.330Z,26.37
2018-12-26T07:09:33.220Z,26.73
2018-12-26T07:11:59.349Z,29.42
2018-12-26T07:14:28.176Z,25.27
2018-12-26T07:16:54.026Z,30.57
2018-12-26T07:19:22.971Z,38.47
2018-12-26T07:21:48.851Z,27.13
2018-12-26T07:24:17.980Z,23.50
2018-12-26T07:26:43.832Z,37.15
2018-12-26T07:29:09.650Z,26.13
2018-12-26T07:31:35.479Z,26.37
2018-12-26T07:34:03.394Z,31.53
2018-12-26T07:36:29.380Z,28.52
2018-12-26T07:38:55.197Z,30.93
2018-12-26T07:41:24.200Z,26.97
2018-12-26T07:43:50.035Z,24.85
2018-12-26T07:46:18.770Z,24.67
2018-12-26T07:48:44.643Z,24.47
2018-12-26T07:51:13.500Z,21.07
2018-12-26T07:53:39.616Z,24.67
2018-12-26T07:56:06.871Z,15.83
2018-12-26T07:58:33.476Z,18.07
2018-12-26T08:01:03.097Z,21.95
2018-12-26T08:03:29.180Z,20.35
2018-12-26T08:05:55.084Z,17.27
2018-12-26T08:08:20.945Z,25.23
2018-12-26T08:10:46.728Z,24.43
2018-12-26T08:13:16.090Z,17.97
2018-12-26T08:15:42.359Z,18.82
2018-12-26T08:18:08.203Z,16.02
2018-12-26T08:20:34.043Z,15.80
2018-12-26T08:23:04.881Z,16.23
2018-12-26T08:25:30.760Z,16.57
2018-12-26T08:27:59.477Z,18.33
2018-12-26T08:30:25.541Z,14.58
2018-12-26T08:32:54.160Z,12.80
2018-12-26T08:35:20.047Z,14.95
2018-12-26T08:37:48.901Z,20.47
2018-12-26T08:40:14.729Z,56.15
2018-12-26T08:42:40.578Z,16.70
2018-12-26T08:45:06.418Z,14.27
2018-12-26T08:47:32.227Z,15.33
2018-12-26T08:50:02.801Z,17.67
2018-12-26T08:52:28.688Z,16.87
2018-12-26T08:54:54.531Z,17.87
2018-12-26T08:57:20.335Z,17.10
2018-12-26T08:59:48.953Z,15.33
2018-12-26T09:02:15.520Z,13.70
2018-12-26T09:04:44.897Z,12.28
2018-12-26T09:07:10.737Z,13.83
2018-12-26T09:09:39.492Z,13.63
2018-12-26T09:12:05.307Z,11.93
2018-12-26T09:14:34.227Z,13.87
2018-12-26T09:17:00.098Z,11.22
2018-12-26T09:19:25.916Z,14.30
2018-12-26T09:21:51.768Z,12.97
2018-12-26T09:24:17.700Z,14.03
2018-12-26T09:26:46.543Z,14.03
2018-12-26T09:29:12.402Z,13.13
2018-12-26T09:31:38.852Z,12.20
2018-12-26T09:34:05.071Z,12.28
2018-12-26T09:36:34.352Z,15.53
2018-12-26T09:39:00.196Z,12.28
2018-12-26T09:41:28.769Z,13.17
2018-12-26T09:43:54.736Z,13.08
2018-12-26T09:46:25.160Z,9.90
2018-12-26T09:48:51.322Z,13.95
2018-12-26T09:51:17.440Z,12.03
2018-12-26T09:53:43.302Z,12.93
2018-12-26T09:56:09.963Z,14.53
2018-12-26T09:58:35.807Z,12.90
2018-12-26T10:01:01.607Z,17.07
2018-12-26T10:03:30.467Z,12.87
2018-12-26T10:05:56.293Z,11.50
2018-12-26T10:08:25.234Z,12.63
2018-12-26T10:10:51.328Z,11.48
2018-12-26T10:13:18.462Z,12.55
2018-12-26T10:15:44.333Z,10.78
2018-12-26T10:18:13.415Z,11.10
2018-12-26T10:20:39.494Z,10.90
2018-12-26T10:23:08.527Z,11.35
2018-12-26T10:25:34.659Z,12.00
2018-12-26T10:28:03.860Z,15.75
2018-12-26T10:30:29.964Z,14.43
2018-12-26T10:32:55.905Z,12.37
2018-12-26T10:35:21.737Z,11.07
2018-12-26T10:37:47.559Z,12.37
2018-12-26T10:40:14.573Z,13.60
2018-12-26T10:42:40.430Z,13.40
2018-12-26T10:45:10.099Z,12.77
2018-12-26T10:47:36.300Z,11.90
2018-12-26T10:50:07.572Z,14.63
2018-12-26T10:52:33.506Z,104.40
2018-12-26T10:54:59.310Z,29.70
2018-12-26T10:57:25.166Z,15.80
2018-12-26T10:59:53.559Z,12.77
2018-12-26T11:02:19.377Z,15.18
2018-12-26T11:04:48.842Z,13.60
2018-12-26T11:07:14.800Z,13.68
2018-12-26T11:09:40.606Z,14.20
2018-12-26T11:12:07.160Z,12.00
2018-12-26T11:14:33.298Z,13.45
2018-12-26T11:17:02.411Z,12.10
2018-12-26T11:19:28.449Z,13.35
2018-12-26T11:21:54.370Z,15.08
2018-12-26T11:24:20.509Z,13.90
2018-12-26T11:26:51.127Z,12.13
2018-12-26T11:29:18.770Z,11.25
2018-12-26T11:31:44.911Z,14.05
2018-12-26T11:34:10.725Z,13.10
2018-12-26T11:36:39.688Z,12.60
2018-12-26T11:39:05.639Z,14.35
2018-12-26T11:41:34.542Z,12.17
2018-12-26T11:44:00.403Z,15.83
2018-12-26T11:46:26.340Z,15.80
2018-12-26T11:48:52.226Z,18.85
2018-12-26T11:51:18.065Z,23.23
2018-12-26T11:53:44.918Z,13.47
2018-12-26T11:56:10.770Z,18.05
2018-12-26T11:58:40.238Z,13.33
2018-12-26T12:01:06.307Z,13.20
2018-12-26T12:03:34.985Z,14.78
2018-12-26T12:06:01.092Z,11.85
2018-12-26T12:08:29.136Z,13.38
2018-12-26T12:10:55.830Z,14.98
2018-12-26T12:13:23.825Z,13.98
2018-12-26T12:15:49.670Z,14.18
2018-12-26T12:18:18.505Z,14.10
2018-12-26T12:20:44.315Z,13.60
2018-12-26T12:23:10.162Z,13.53
2018-12-26T12:25:35.981Z,14.33
2018-12-26T12:28:01.818Z,14.40
2018-12-26T12:30:30.678Z,12.10
2018-12-26T12:32:56.631Z,14.93
2018-12-26T12:35:27.205Z,13.83
2018-12-26T12:37:53.049Z,13.90
2018-12-26T12:40:22.116Z,13.20
2018-12-26T12:42:48.305Z,14.70
2018-12-26T12:45:15.128Z,16.17
2018-12-26T12:47:41.196Z,13.03
2018-12-26T12:50:09.786Z,15.65
2018-12-26T12:52:35.616Z,14.18
2018-12-26T12:55:04.348Z,15.27
2018-12-26T12:57:30.166Z,15.48
2018-12-26T12:59:56.134Z,14.30
2018-12-26T13:02:22.079Z,20.20
2018-12-26T13:04:48.119Z,16.17
2018-12-26T13:07:16.760Z,16.80
2018-12-26T13:09:42.593Z,14.35
2018-12-26T13:12:11.557Z,13.90
2018-12-26T13:14:37.733Z,14.65
2018-12-26T13:17:06.351Z,13.53
2018-12-26T13:19:32.274Z,14.10
2018-12-26T13:22:01.394Z,12.80
2018-12-26T13:24:27.220Z,12.40
2018-12-26T13:26:56.248Z,13.60
2018-12-26T13:29:22.383Z,14.87
2018-12-26T13:31:51.295Z,10.78
2018-12-26T13:34:17.109Z,11.85
2018-12-26T13:36:43.234Z,10.97
2018-12-26T13:39:09.092Z,13.58
2018-12-26T13:41:34.941Z,11.67
2018-12-26T13:44:03.770Z,14.63
2018-12-26T13:46:33.677Z,12.45
2018-12-26T13:48:57.684Z,12.35
2018-12-26T13:51:23.534Z,11.80
2018-12-26T13:53:52.450Z,12.73
2018-12-26T13:56:18.290Z,12.43
2018-12-26T13:58:47.137Z,14.63
2018-12-26T14:01:12.937Z,12.55
2018-12-26T14:03:41.580Z,12.30
2018-12-26T14:06:07.711Z,12.43
2018-12-26T14:08:35.568Z,11.40
2018-12-26T14:11:01.403Z,14.78
2018-12-26T14:13:27.340Z,14.50
2018-12-26T14:15:53.442Z,14.77
2018-12-26T14:18:19.325Z,13.68
2018-12-26T14:20:46.550Z,12.53
2018-12-26T14:23:12.634Z,12.63
2018-12-26T14:25:41.519Z,16.15
2018-12-26T14:28:07.328Z,16.90
2018-12-26T14:30:35.967Z,14.43
2018-12-26T14:33:01.784Z,23.38
2018-12-26T14:35:30.205Z,14.90
2018-12-26T14:37:56.038Z,16.80
2018-12-26T14:40:27.861Z,19.33
2018-12-26T14:42:55.684Z,16.95
2018-12-26T14:45:21.701Z,24.85
2018-12-26T14:47:47.530Z,16.17
2018-12-26T14:50:13.509Z,17.63
2018-12-26T14:52:39.608Z,14.63
2018-12-26T14:55:05.469Z,14.53
2018-12-26T14:57:34.582Z,14.60
2018-12-26T15:00:00.572Z,14.70
2018-12-26T15:02:26.405Z,16.37
2018-12-26T15:04:53.018Z,16.20
2018-12-26T15:07:21.924Z,13.28
2018-12-26T15:09:47.723Z,17.10
2018-12-26T15:12:33.435Z,17.73
2018-12-26T15:14:59.250Z,19.70
2018-12-26T15:17:25.368Z,18.70
2018-12-26T15:19:51.173Z,17.92
2018-12-26T15:22:17.016Z,18.50
2018-12-26T15:24:42.870Z,21.67
2018-12-26T15:27:08.736Z,23.83
2018-12-26T15:29:34.554Z,30.53
2018-12-26T15:32:00.407Z,38.67
2018-12-26T15:34:26.310Z,22.77
2018-12-26T15:36:52.128Z,28.40
2018-12-26T15:39:17.971Z,28.50
2018-12-26T15:41:43.917Z,26.07
2018-12-26T15:44:09.770Z,24.83
2018-12-26T15:46:35.582Z,24.60
2018-12-26T15:49:01.437Z,24.87
2018-12-26T15:51:28.597Z,21.33
2018-12-26T15:53:56.117Z,23.62
2018-12-26T15:56:21.985Z,24.75
2018-12-26T15:58:53.180Z,26.77
2018-12-26T16:01:19.036Z,30.90
2018-12-26T16:03:44.882Z,24.00
2018-12-26T16:06:10.977Z,28.37
2018-12-26T16:08:37.157Z,22.77
2018-12-26T16:11:03.088Z,23.57
2018-12-26T16:13:28.959Z,28.27
2018-12-26T16:15:57.040Z,21.93
2018-12-26T16:18:22.862Z,30.43
2018-12-26T16:20:53.518Z,29.50
2018-12-26T16:23:19.352Z,24.55
2018-12-26T16:25:46.345Z,27.40
2018-12-26T16:28:12.162Z,28.92
2018-12-26T16:30:46.082Z,25.70
2018-12-26T16:33:14.640Z,26.57
2018-12-26T16:35:40.486Z,30.17
2018-12-26T16:38:06.304Z,31.07
2018-12-26T16:40:32.182Z,32.33
2018-12-26T16:42:58.006Z,24.93
2018-12-26T16:45:24.245Z,28.20
2018-12-26T16:47:50.117Z,31.35
2018-12-26T16:50:15.923Z,27.70
2018-12-26T16:52:44.857Z,35.53
2018-12-26T16:55:10.624Z,25.85
2018-12-26T16:57:39.616Z,34.23
2018-12-26T17:00:10.515Z,35.08
2018-12-26T17:02:36.350Z,39.55
2018-12-26T17:05:02.792Z,30.07
2018-12-26T17:07:28.892Z,29.55
2018-12-26T17:09:54.739Z,32.20
2018-12-26T17:12:25.651Z,31.07
2018-12-26T17:14:51.508Z,34.27
2018-12-26T17:17:17.318Z,33.37
2018-12-26T17:19:43.484Z,37.73
2018-12-26T17:22:09.569Z,36.33
2018-12-26T17:24:35.456Z,29.87
2018-12-26T17:27:01.240Z,31.40
2018-12-26T17:29:29.869Z,30.07
2018-12-26T17:31:55.698Z,26.68
2018-12-26T17:34:24.431Z,27.50
2018-12-26T17:36:50.278Z,27.27
2018-12-26T17:39:19.260Z,27.00
2018-12-26T17:41:45.365Z,34.65
2018-12-26T17:44:14.699Z,28.57
2018-12-26T17:46:41.371Z,30.72
2018-12-26T17:49:07.499Z,29.70
2018-12-26T17:51:33.316Z,32.35
2018-12-26T17:54:02.947Z,30.23
2018-12-26T17:56:32.673Z,29.23
2018-12-26T17:59:08.664Z,26.90
2018-12-26T18:01:53.411Z,27.58
2018-12-26T18:04:19.469Z,28.90
2018-12-26T18:06:45.323Z,27.73
2018-12-26T18:09:11.124Z,31.57
2018-12-26T18:11:37.279Z,26.07
2018-12-26T18:14:03.204Z,30.50
2018-12-26T18:16:29.049Z,24.93
2018-12-26T18:18:54.866Z,29.60
2018-12-26T18:21:20.908Z,26.30
2018-12-26T18:23:46.716Z,26.62
2018-12-26T18:26:12.942Z,30.67
2018-12-26T18:28:39.480Z,24.70
2018-12-26T18:31:05.340Z,30.15
2018-12-26T18:33:31.940Z,32.50
2018-12-26T18:35:57.993Z,46.80
2018-12-26T18:38:23.890Z,37.23
2018-12-26T18:40:49.751Z,38.53
2018-12-26T18:43:16.055Z,33.60
2018-12-26T18:45:42.224Z,32.38
2018-12-26T18:48:08.345Z,28.73
2018-12-26T18:50:34.189Z,34.67
2018-12-26T18:53:00.366Z,34.73
2018-12-26T18:55:26.215Z,39.55
2018-12-26T18:57:52.038Z,33.93
2018-12-26T19:00:17.898Z,41.20
2018-12-26T19:02:44.034Z,36.43
2018-12-26T19:05:09.926Z,36.35
2018-12-26T19:07:36.036Z,32.97
2018-12-26T19:10:03.166Z,43.02
2018-12-26T19:12:29.105Z,29.95
2018-12-26T19:14:54.998Z,28.30
2018-12-26T19:17:20.853Z,23.30
2018-12-26T19:19:49.008Z,26.13
2018-12-26T19:22:14.833Z,23.00
2018-12-26T19:24:40.987Z,25.40
2018-12-26T19:27:06.825Z,23.73
2018-12-26T19:29:32.711Z,24.40
2018-12-26T19:31:58.838Z,26.20
2018-12-26T19:34:27.696Z,34.05
2018-12-26T19:36:53.863Z,22.85
2018-12-26T19:39:23.081Z,20.52
2018-12-26T19:41:48.905Z,23.25
2018-12-26T19:44:14.721Z,21.70
2018-12-26T19:46:40.588Z,23.23
2018-12-26T19:49:06.516Z,20.27
2018-12-26T19:51:35.201Z,21.27
2018-12-26T19:54:01.072Z,29.30
2018-12-26T19:56:30.108Z,24.10
2018-12-26T19:58:55.940Z,20.90
2018-12-26T20:01:24.786Z,21.97
2018-12-26T20:03:50.640Z,21.68
2018-12-26T20:06:19.230Z,20.90
2018-12-26T20:08:45.355Z,18.70
2018-12-26T20:11:14.247Z,21.87
2018-12-26T20:13:40.356Z,20.45
2018-12-26T20:16:07.526Z,21.35
2018-12-26T20:18:33.655Z,18.67
2018-12-26T20:20:59.804Z,20.52
2018-12-26T20:23:25.632Z,25.68
2018-12-26T20:25:51.466Z,19.73
2018-12-26T20:28:20.077Z,20.30
2018-12-26T20:30:46.168Z,20.70
2018-12-26T20:33:15.219Z,20.15
2018-12-26T20:35:41.325Z,21.37
2018-12-26T20:38:10.198Z,17.15
2018-12-26T20:40:36.034Z,19.70
2018-12-26T20:43:04.651Z,22.17
2018-12-26T20:45:30.579Z,19.82
2018-12-26T20:47:59.435Z,24.80
2018-12-26T20:50:25.359Z,20.68
2018-12-26T20:52:53.212Z,19.37
2018-12-26T20:55:19.070Z,21.68
2018-12-26T20:57:45.112Z,21.70
2018-12-26T21:00:10.982Z,23.90
2018-12-26T21:02:36.831Z,21.57
2018-12-26T21:05:06.654Z,16.73
2018-12-26T21:07:33.082Z,19.62
2018-12-26T21:10:04.163Z,17.42
2018-12-26T21:12:30.013Z,24.65
2018-12-26T21:14:55.887Z,16.67
2018-12-26T21:17:22.011Z,20.17
2018-12-26T21:19:51.053Z,18.95
2018-12-26T21:22:17.213Z,19.95
2018-12-26T21:24:46.520Z,21.17
2018-12-26T21:27:12.641Z,17.60
2018-12-26T21:29:38.550Z,20.32
2018-12-26T21:32:04.522Z,19.00
2018-12-26T21:34:30.392Z,18.07
2018-12-26T21:36:56.254Z,21.43
2018-12-26T21:39:22.078Z,25.73
2018-12-26T21:41:50.839Z,22.97
2018-12-26T21:44:16.681Z,23.80
2018-12-26T21:46:45.547Z,23.87
2018-12-26T21:49:11.820Z,19.55
2018-12-26T21:51:41.698Z,24.32
2018-12-26T21:54:07.666Z,20.95
2018-12-26T21:56:36.741Z,19.13
2018-12-26T21:59:02.600Z,20.32
2018-12-26T22:01:31.373Z,17.77
2018-12-26T22:03:57.659Z,16.35
2018-12-26T22:06:23.734Z,24.00
2018-12-26T22:08:49.978Z,18.32
2018-12-26T22:11:15.803Z,15.98
2018-12-26T22:13:41.643Z,16.60
2018-12-26T22:16:07.801Z,17.40
2018-12-26T22:18:37.366Z,19.90
2018-12-26T22:21:03.566Z,17.73
2018-12-26T22:23:32.667Z,22.32
2018-12-26T22:25:58.486Z,19.07
2018-12-26T22:28:27.379Z,26.60
2018-12-26T22:30:53.231Z,17.98
2018-12-26T22:33:21.885Z,19.50
2018-12-26T22:35:47.710Z,21.93
2018-12-26T22:38:16.364Z,20.17
2018-12-26T22:40:42.509Z,32.60
2018-12-26T22:43:11.511Z,24.40
2018-12-26T22:45:43.834Z,23.62
2018-12-26T22:48:05.419Z,26.20
2018-12-26T22:50:31.513Z,25.55
2018-12-26T22:52:57.468Z,21.57
2018-12-26T22:55:23.290Z,20.83
2018-12-26T22:57:49.263Z,19.63
2018-12-26T23:00:19.775Z,20.82
2018-12-26T23:02:45.637Z,30.00
2018-12-26T23:05:11.451Z,26.30
2018-12-26T23:07:37.285Z,26.57
2018-12-26T23:10:05.991Z,23.30
2018-12-26T23:12:32.156Z,25.05
2018-12-26T23:15:00.820Z,26.85
2018-12-26T23:17:26.697Z,28.95
2018-12-26T23:19:55.913Z,23.10
2018-12-26T23:22:21.732Z,21.55
2018-12-26T23:24:48.072Z,20.10
2018-12-26T23:27:14.370Z,25.12
2018-12-26T23:29:40.495Z,20.45
2018-12-26T23:32:06.360Z,20.57
2018-12-26T23:34:32.481Z,23.27
2018-12-26T23:37:01.099Z,28.57
2018-12-26T23:39:27.048Z,27.02
2018-12-26T23:41:55.865Z,27.00
2018-12-26T23:44:21.703Z,27.13
2018-12-26T23:46:50.309Z,21.53
2018-12-26T23:49:16.160Z,22.40
2018-12-26T23:51:45.022Z,17.90
2018-12-26T23:54:11.205Z,18.40
2018-12-26T23:56:40.073Z,17.35
2018-12-26T23:59:05.906Z,17.65
